createdAt,value
2017-11-30T00:01:53.754Z,2.70
2017-11-30T00:04:21.297Z,2.60
2017-11-30T00:06:49.488Z,2.60
2017-11-30T00:09:17.034Z,2.60
2017-11-30T00:11:44.483Z,2.60
2017-11-30T00:14:11.944Z,2.50
2017-11-30T00:16:39.418Z,2.60
2017-11-30T00:19:06.927Z,2.60
2017-11-30T00:21:34.423Z,2.70
2017-11-30T00:24:02.668Z,2.60
2017-11-30T00:26:30.900Z,2.60
2017-11-30T00:28:58.356Z,2.60
2017-11-30T00:31:25.903Z,2.60
2017-11-30T00:33:54.184Z,2.70
2017-11-30T00:36:21.618Z,2.70
2017-11-30T00:38:49.115Z,2.70
2017-11-30T00:41:16.702Z,2.80
2017-11-30T00:43:44.208Z,2.80
2017-11-30T00:46:11.685Z,2.80
2017-11-30T00:48:39.119Z,2.80
2017-11-30T00:51:06.847Z,2.80
2017-11-30T00:53:34.307Z,2.90
2017-11-30T00:56:01.762Z,2.90
2017-11-30T00:58:29.244Z,2.90
2017-11-30T01:00:56.723Z,2.90
2017-11-30T01:03:24.194Z,2.90
2017-11-30T01:05:51.694Z,2.80
2017-11-30T01:08:19.134Z,2.90
2017-11-30T01:10:46.647Z,2.90
2017-11-30T01:13:14.890Z,2.80
2017-11-30T01:15:42.351Z,2.80
2017-11-30T01:18:09.853Z,2.70
2017-11-30T01:20:37.336Z,2.60
2017-11-30T01:23:04.813Z,2.60
2017-11-30T01:25:32.525Z,2.60
2017-11-30T01:28:00.782Z,2.60
2017-11-30T01:30:29.025Z,2.60
2017-11-30T01:32:56.602Z,2.60
2017-11-30T01:35:24.095Z,2.50
2017-11-30T01:37:51.552Z,2.50
2017-11-30T01:40:20.557Z,2.60
2017-11-30T01:42:48.050Z,2.60
2017-11-30T01:45:15.521Z,2.50
2017-11-30T01:47:42.998Z,2.50
2017-11-30T01:50:10.500Z,2.50
2017-11-30T01:52:38.016Z,2.40
2017-11-30T01:55:05.482Z,2.40
2017-11-30T01:57:33.003Z,2.40
2017-11-30T02:00:01.240Z,2.50
2017-11-30T02:02:28.757Z,2.50
2017-11-30T02:04:57.007Z,2.50
2017-11-30T02:07:24.468Z,2.50
2017-11-30T02:09:52.011Z,2.50
2017-11-30T02:12:20.226Z,2.40
2017-11-30T02:14:47.704Z,2.40
2017-11-30T02:17:15.962Z,2.40
2017-11-30T02:19:43.432Z,2.40
2017-11-30T02:22:10.933Z,2.30
2017-11-30T02:24:38.367Z,2.30
2017-11-30T02:27:06.597Z,2.40
2017-11-30T02:29:34.091Z,2.40
2017-11-30T02:32:01.552Z,2.50
2017-11-30T02:34:29.044Z,2.50
2017-11-30T02:36:57.303Z,2.50
2017-11-30T02:39:24.803Z,2.50
2017-11-30T02:41:52.272Z,2.60
2017-11-30T02:44:19.728Z,2.60
2017-11-30T02:46:47.208Z,2.50
2017-11-30T02:49:14.685Z,2.60
2017-11-30T02:51:42.215Z,2.50
2017-11-30T02:54:09.673Z,2.40
2017-11-30T02:56:37.142Z,2.40
2017-11-30T02:59:05.402Z,2.50
2017-11-30T03:01:33.657Z,2.40
2017-11-30T03:04:01.151Z,2.40
2017-11-30T03:06:29.391Z,2.60
2017-11-30T03:08:56.871Z,2.60
2017-11-30T03:11:24.365Z,2.60
2017-11-30T03:13:51.882Z,2.50
2017-11-30T03:16:19.356Z,2.50
2017-11-30T03:18:46.812Z,2.60
2017-11-30T03:21:14.321Z,2.70
2017-11-30T03:23:41.795Z,2.60
2017-11-30T03:26:09.284Z,2.50
2017-11-30T03:28:37.007Z,2.50
2017-11-30T03:31:04.489Z,2.60
2017-11-30T03:33:32.032Z,2.70
2017-11-30T03:35:59.454Z,2.70
2017-11-30T03:38:26.901Z,2.80
2017-11-30T03:40:54.389Z,2.70
2017-11-30T03:43:21.903Z,2.70
2017-11-30T03:45:50.119Z,2.70
2017-11-30T03:48:17.605Z,2.70
2017-11-30T03:50:45.888Z,2.70
2017-11-30T03:53:14.146Z,2.80
2017-11-30T03:55:41.632Z,2.70
2017-11-30T03:58:09.867Z,2.80
2017-11-30T04:00:37.339Z,2.80
2017-11-30T04:03:04.791Z,2.90
2017-11-30T04:05:32.265Z,2.90
2017-11-30T04:07:59.740Z,2.80
2017-11-30T04:10:27.202Z,2.80
2017-11-30T04:12:54.706Z,2.80
2017-11-30T04:15:22.204Z,2.90
2017-11-30T04:17:49.681Z,3.00
2017-11-30T04:20:17.157Z,2.90
2017-11-30T04:22:44.639Z,2.80
2017-11-30T04:25:12.844Z,2.80
2017-11-30T04:27:40.352Z,2.80
2017-11-30T04:30:07.883Z,2.90
2017-11-30T04:32:36.086Z,2.90
2017-11-30T04:35:03.566Z,2.90
2017-11-30T04:37:31.032Z,2.90
2017-11-30T04:39:58.513Z,2.80
2017-11-30T04:42:26.766Z,3.00
2017-11-30T04:44:54.220Z,2.90
2017-11-30T04:47:21.704Z,3.00
2017-11-30T04:49:49.176Z,3.10
2017-11-30T04:52:18.179Z,3.10
2017-11-30T04:54:46.902Z,3.10
2017-11-30T04:57:14.428Z,3.10
2017-11-30T04:59:42.665Z,2.80
2017-11-30T05:02:10.178Z,2.80
2017-11-30T05:04:37.652Z,2.90
2017-11-30T05:07:05.876Z,3.00
2017-11-30T05:09:33.366Z,3.00
2017-11-30T05:12:00.844Z,2.90
2017-11-30T05:14:29.116Z,3.00
2017-11-30T05:16:57.386Z,3.10
2017-11-30T05:19:24.856Z,3.00
2017-11-30T05:21:52.421Z,3.00
2017-11-30T05:24:19.871Z,3.10
2017-11-30T05:26:47.338Z,3.10
2017-11-30T05:29:14.791Z,3.10
2017-11-30T05:31:42.257Z,3.20
2017-11-30T05:34:09.700Z,3.20
2017-11-30T05:36:37.195Z,3.10
2017-11-30T05:39:05.431Z,3.20
2017-11-30T05:41:32.900Z,3.20
2017-11-30T05:44:00.383Z,3.20
2017-11-30T05:46:27.860Z,3.10
2017-11-30T05:48:55.366Z,3.10
2017-11-30T05:51:22.846Z,3.10
2017-11-30T05:53:50.349Z,3.10
2017-11-30T05:56:17.803Z,3.10
2017-11-30T05:58:45.328Z,3.00
2017-11-30T06:01:12.789Z,3.00
2017-11-30T06:03:40.285Z,3.00
2017-11-30T06:06:07.785Z,3.10
2017-11-30T06:08:35.272Z,3.10
2017-11-30T06:11:02.762Z,3.00
2017-11-30T06:13:30.233Z,2.90
2017-11-30T06:15:57.727Z,2.80
2017-11-30T06:18:25.947Z,3.00
2017-11-30T06:20:53.415Z,3.00
2017-11-30T06:23:20.959Z,2.90
2017-11-30T06:25:48.404Z,3.00
2017-11-30T06:28:16.629Z,3.00
2017-11-30T06:30:44.118Z,3.00
2017-11-30T06:33:11.586Z,3.00
2017-11-30T06:35:39.043Z,3.10
2017-11-30T06:38:06.535Z,3.20
2017-11-30T06:40:34.066Z,3.20
2017-11-30T06:43:01.548Z,3.20
2017-11-30T06:45:29.017Z,3.10
2017-11-30T06:47:57.283Z,3.10
2017-11-30T06:50:24.965Z,3.10
2017-11-30T06:52:52.398Z,3.10
2017-11-30T06:55:19.872Z,3.20
2017-11-30T06:57:47.333Z,3.10
2017-11-30T07:00:14.822Z,3.10
2017-11-30T07:02:42.308Z,3.20
2017-11-30T07:05:09.830Z,3.20
2017-11-30T07:07:38.058Z,3.20
2017-11-30T07:10:05.552Z,3.10
2017-11-30T07:12:33.770Z,3.20
2017-11-30T07:15:01.255Z,3.20
2017-11-30T07:17:28.707Z,3.20
2017-11-30T07:19:56.200Z,3.20
2017-11-30T07:22:23.646Z,3.20
2017-11-30T07:24:51.207Z,3.10
2017-11-30T07:27:18.962Z,3.00
2017-11-30T07:29:46.519Z,3.10
2017-11-30T07:32:13.991Z,3.10
2017-11-30T07:34:41.450Z,3.00
2017-11-30T07:37:08.940Z,3.00
2017-11-30T07:39:36.414Z,3.00
2017-11-30T07:42:03.897Z,3.10
2017-11-30T07:44:32.199Z,3.10
2017-11-30T07:46:59.808Z,3.00
2017-11-30T07:49:27.255Z,3.10
2017-11-30T07:51:54.764Z,3.10
2017-11-30T07:54:22.235Z,3.10
2017-11-30T07:56:49.697Z,3.20
2017-11-30T07:59:17.200Z,3.10
2017-11-30T08:01:44.644Z,3.20
2017-11-30T08:04:12.898Z,3.20
2017-11-30T08:06:40.364Z,3.20
2017-11-30T08:09:07.844Z,3.20
2017-11-30T08:11:36.127Z,3.30
2017-11-30T08:14:04.364Z,3.30
2017-11-30T08:16:31.834Z,3.30
2017-11-30T08:18:59.310Z,3.20
2017-11-30T08:21:26.824Z,3.20
2017-11-30T08:23:54.285Z,3.30
2017-11-30T08:26:21.862Z,3.30
2017-11-30T08:28:49.370Z,3.40
2017-11-30T08:31:16.817Z,3.40
2017-11-30T08:33:44.323Z,3.50
2017-11-30T08:36:12.595Z,3.50
2017-11-30T08:38:40.824Z,3.60
2017-11-30T08:41:08.324Z,3.60
2017-11-30T08:43:35.782Z,3.70
2017-11-30T08:46:03.231Z,3.70
2017-11-30T08:48:30.745Z,3.70
2017-11-30T08:50:58.218Z,3.60
2017-11-30T08:53:25.709Z,3.70
2017-11-30T08:55:53.235Z,3.70
2017-11-30T08:58:20.734Z,3.70
2017-11-30T09:00:48.261Z,3.70
2017-11-30T09:03:15.781Z,3.70
2017-11-30T09:05:43.200Z,3.80
2017-11-30T09:08:10.708Z,3.80
2017-11-30T09:10:38.174Z,3.90
2017-11-30T09:13:05.667Z,3.80
2017-11-30T09:15:33.121Z,3.80
2017-11-30T09:18:01.375Z,3.80
2017-11-30T09:20:28.896Z,3.80
2017-11-30T09:22:56.356Z,3.80
2017-11-30T09:25:23.883Z,3.80
2017-11-30T09:27:52.121Z,4.00
2017-11-30T09:30:19.602Z,3.90
2017-11-30T09:32:47.302Z,4.00
2017-11-30T09:35:14.801Z,3.90
2017-11-30T09:37:42.258Z,3.90
2017-11-30T09:40:09.753Z,3.90
2017-11-30T09:42:37.243Z,3.90
2017-11-30T09:45:05.526Z,4.00
2017-11-30T09:47:33.948Z,3.90
2017-11-30T09:50:01.382Z,4.00
2017-11-30T09:52:28.931Z,4.10
2017-11-30T09:54:56.443Z,4.10
2017-11-30T09:57:23.903Z,4.10
2017-11-30T09:59:51.369Z,4.10
2017-11-30T10:02:18.867Z,4.10
2017-11-30T10:04:46.330Z,4.20
2017-11-30T10:07:13.827Z,4.20
2017-11-30T10:09:41.280Z,4.10
2017-11-30T10:12:09.536Z,4.20
2017-11-30T10:14:36.986Z,4.20
2017-11-30T10:17:04.479Z,4.20
2017-11-30T10:19:32.721Z,4.20
2017-11-30T10:22:00.209Z,4.20
2017-11-30T10:24:27.670Z,4.30
2017-11-30T10:26:55.927Z,4.50
2017-11-30T10:29:23.398Z,4.50
2017-11-30T10:31:50.913Z,4.50
2017-11-30T10:34:18.431Z,4.50
2017-11-30T10:36:45.922Z,4.50
2017-11-30T10:39:14.139Z,4.60
2017-11-30T10:41:41.624Z,4.50
2017-11-30T10:44:09.111Z,4.50
2017-11-30T10:46:36.589Z,4.60
2017-11-30T10:49:04.041Z,4.60
2017-11-30T10:51:31.527Z,4.70
2017-11-30T10:53:58.999Z,4.60
2017-11-30T10:56:26.503Z,4.40
2017-11-30T10:58:53.953Z,4.40
2017-11-30T11:01:21.487Z,4.50
2017-11-30T11:03:48.918Z,4.50
2017-11-30T11:06:17.213Z,4.50
2017-11-30T11:08:45.472Z,4.50
2017-11-30T11:11:13.766Z,4.50
2017-11-30T11:13:41.312Z,4.50
2017-11-30T11:16:08.744Z,4.50
2017-11-30T11:18:36.209Z,4.50
2017-11-30T11:21:03.750Z,4.50
2017-11-30T11:23:31.210Z,4.50
2017-11-30T11:25:58.705Z,4.60
2017-11-30T11:28:26.177Z,4.60
2017-11-30T11:30:55.407Z,4.60
2017-11-30T11:33:22.888Z,4.60
2017-11-30T11:35:50.363Z,4.50
2017-11-30T11:38:17.867Z,4.60
2017-11-30T11:40:45.350Z,4.60
2017-11-30T11:43:12.838Z,4.70
2017-11-30T11:45:40.293Z,4.70
2017-11-30T11:48:07.749Z,4.70
2017-11-30T11:50:35.238Z,4.80
2017-11-30T11:53:02.732Z,4.80
2017-11-30T11:55:30.198Z,4.70
2017-11-30T11:57:57.680Z,4.60
2017-11-30T12:00:25.147Z,4.60
2017-11-30T12:02:52.695Z,4.50
2017-11-30T12:05:20.178Z,4.40
2017-11-30T12:07:47.651Z,4.30
2017-11-30T12:10:15.162Z,4.30
2017-11-30T12:12:42.626Z,4.40
2017-11-30T12:15:10.841Z,4.50
2017-11-30T12:17:38.322Z,4.40
2017-11-30T12:20:05.820Z,4.50
2017-11-30T12:22:33.321Z,4.50
2017-11-30T12:25:00.757Z,4.50
2017-11-30T12:27:28.222Z,4.60
2017-11-30T12:29:55.870Z,4.60
2017-11-30T12:32:24.069Z,4.60
2017-11-30T12:34:51.556Z,4.60
2017-11-30T12:37:19.007Z,4.60
2017-11-30T12:39:46.528Z,4.60
2017-11-30T12:42:14.008Z,4.60
2017-11-30T12:44:41.484Z,4.70
2017-11-30T12:47:08.935Z,4.70
2017-11-30T12:49:36.457Z,4.70
2017-11-30T12:52:03.934Z,4.80
2017-11-30T12:54:31.377Z,4.80
2017-11-30T12:56:59.610Z,4.80
2017-11-30T12:59:27.164Z,4.80
2017-11-30T13:01:54.618Z,4.90
2017-11-30T13:04:22.136Z,4.90
2017-11-30T13:06:49.561Z,4.90
2017-11-30T13:09:17.063Z,4.90
2017-11-30T13:11:44.554Z,5.00
2017-11-30T13:14:12.011Z,5.00
2017-11-30T13:16:40.314Z,4.90
2017-11-30T13:19:07.796Z,4.80
2017-11-30T13:21:35.310Z,4.90
2017-11-30T13:24:03.573Z,5.00
2017-11-30T13:26:31.261Z,5.00
2017-11-30T13:28:59.612Z,5.10
2017-11-30T13:31:27.075Z,5.00
2017-11-30T13:33:54.600Z,5.00
2017-11-30T13:36:22.130Z,5.00
2017-11-30T13:38:49.653Z,5.00
2017-11-30T13:41:17.378Z,5.00
2017-11-30T13:43:44.897Z,4.90
2017-11-30T13:46:13.109Z,5.00
2017-11-30T13:48:40.641Z,4.90
2017-11-30T13:51:08.593Z,4.90
2017-11-30T13:53:36.939Z,4.90
2017-11-30T13:56:04.644Z,4.90
2017-11-30T13:58:32.106Z,4.90
2017-11-30T14:00:59.594Z,5.00
2017-11-30T14:03:30.533Z,4.90
2017-11-30T14:05:57.972Z,4.90
2017-11-30T14:08:25.430Z,5.00
2017-11-30T14:10:52.962Z,5.00
2017-11-30T14:13:20.404Z,5.10
2017-11-30T14:15:48.678Z,5.10
2017-11-30T14:18:16.144Z,5.10
2017-11-30T14:20:43.614Z,5.10
2017-11-30T14:23:11.103Z,5.10
2017-11-30T14:25:38.573Z,5.20
2017-11-30T14:28:06.050Z,5.20
2017-11-30T14:30:34.293Z,5.20
2017-11-30T14:33:01.812Z,5.20
2017-11-30T14:35:29.343Z,5.20
2017-11-30T14:37:57.561Z,5.20
2017-11-30T14:40:25.048Z,5.20
2017-11-30T14:42:53.321Z,5.20
2017-11-30T14:45:20.803Z,5.20
2017-11-30T14:47:49.066Z,5.20
2017-11-30T14:50:17.315Z,5.20
2017-11-30T14:52:45.224Z,5.20
2017-11-30T14:55:13.490Z,5.20
2017-11-30T14:57:41.006Z,5.20
2017-11-30T15:00:09.557Z,5.20
2017-11-30T15:02:37.076Z,5.20
2017-11-30T15:05:04.550Z,5.10
2017-11-30T15:07:32.248Z,5.00
2017-11-30T15:09:59.733Z,5.10
2017-11-30T15:12:27.206Z,5.20
2017-11-30T15:14:54.745Z,5.20
2017-11-30T15:17:22.231Z,5.20
2017-11-30T15:19:49.722Z,5.20
2017-11-30T15:22:17.282Z,5.20
2017-11-30T15:24:44.707Z,5.10
2017-11-30T15:27:12.979Z,4.90
2017-11-30T15:29:41.273Z,4.90
2017-11-30T15:32:09.034Z,5.00
2017-11-30T15:34:36.500Z,4.90
2017-11-30T15:37:04.722Z,4.90
2017-11-30T15:39:32.249Z,4.90
2017-11-30T15:41:59.708Z,4.80
2017-11-30T15:44:27.955Z,4.90
2017-11-30T15:46:55.417Z,4.90
2017-11-30T15:49:23.054Z,5.00
2017-11-30T15:51:50.529Z,5.10
2017-11-30T15:54:18.046Z,5.10
2017-11-30T15:56:45.505Z,5.10
2017-11-30T15:59:13.745Z,5.20
2017-11-30T16:01:41.255Z,5.10
2017-11-30T16:04:08.756Z,5.20
2017-11-30T16:06:36.239Z,5.10
2017-11-30T16:09:03.816Z,5.00
2017-11-30T16:11:31.248Z,5.00
2017-11-30T16:13:58.751Z,5.10
2017-11-30T16:16:27.022Z,5.20
2017-11-30T16:18:54.618Z,5.20
2017-11-30T16:21:22.083Z,5.20
2017-11-30T16:23:49.648Z,5.10
2017-11-30T16:26:17.167Z,5.10
2017-11-30T16:28:44.651Z,5.00
2017-11-30T16:31:12.873Z,5.10
2017-11-30T16:33:40.359Z,5.10
2017-11-30T16:36:07.832Z,5.10
2017-11-30T16:38:35.325Z,5.10
2017-11-30T16:41:03.561Z,5.10
2017-11-30T16:43:31.067Z,5.10
2017-11-30T16:45:59.291Z,5.10
2017-11-30T16:48:26.826Z,5.00
2017-11-30T16:50:55.125Z,5.00
2017-11-30T16:53:22.631Z,5.00
2017-11-30T16:55:50.086Z,5.00
2017-11-30T16:58:17.579Z,4.90
2017-11-30T17:00:45.837Z,4.60
2017-11-30T17:03:13.317Z,4.60
2017-11-30T17:05:41.575Z,4.50
2017-11-30T17:08:09.086Z,4.50
2017-11-30T17:10:36.540Z,4.50
2017-11-30T17:13:04.085Z,4.50
2017-11-30T17:15:32.352Z,4.40
2017-11-30T17:17:59.830Z,4.40
2017-11-30T17:20:28.137Z,4.20
2017-11-30T17:22:58.966Z,4.20
2017-11-30T17:25:26.448Z,4.30
2017-11-30T17:27:54.702Z,4.30
2017-11-30T17:30:22.159Z,4.30
2017-11-30T17:32:50.565Z,4.30
2017-11-30T17:35:18.575Z,4.30
2017-11-30T17:37:46.936Z,4.30
2017-11-30T17:40:14.425Z,4.30
2017-11-30T17:42:41.857Z,4.40
2017-11-30T17:45:09.343Z,4.40
2017-11-30T17:47:36.820Z,4.40
2017-11-30T17:50:04.361Z,4.50
2017-11-30T17:52:31.849Z,4.50
2017-11-30T17:55:01.312Z,4.50
2017-11-30T17:57:28.835Z,4.50
2017-11-30T17:59:57.079Z,4.50
2017-11-30T18:02:24.582Z,4.50
2017-11-30T18:04:52.076Z,4.50
2017-11-30T18:07:19.572Z,4.50
2017-11-30T18:09:47.035Z,4.50
2017-11-30T18:12:14.479Z,4.50
2017-11-30T18:14:42.534Z,4.40
2017-11-30T18:17:10.019Z,4.40
2017-11-30T18:19:37.493Z,4.40
2017-11-30T18:22:05.060Z,4.40
2017-11-30T18:24:32.552Z,4.40
2017-11-30T18:27:00.022Z,4.40
2017-11-30T18:29:28.304Z,4.40
2017-11-30T18:31:56.543Z,4.40
2017-11-30T18:34:24.042Z,4.40
2017-11-30T18:36:52.263Z,4.40
2017-11-30T18:39:20.461Z,4.30
2017-11-30T18:41:47.957Z,4.30
2017-11-30T18:44:15.444Z,4.30
2017-11-30T18:46:42.969Z,4.30
2017-11-30T18:49:10.472Z,4.40
2017-11-30T18:51:37.898Z,4.40
2017-11-30T18:54:05.397Z,4.40
2017-11-30T18:56:34.701Z,4.40
2017-11-30T18:59:02.130Z,4.40
2017-11-30T19:01:30.364Z,4.40
2017-11-30T19:03:57.888Z,4.40
2017-11-30T19:06:26.147Z,4.40
2017-11-30T19:08:53.637Z,4.50
2017-11-30T19:11:21.848Z,4.50
2017-11-30T19:13:49.367Z,4.40
2017-11-30T19:16:16.883Z,4.50
2017-11-30T19:18:45.106Z,4.40
2017-11-30T19:21:12.570Z,4.40
2017-11-30T19:23:40.299Z,4.50
2017-11-30T19:26:07.727Z,4.50
2017-11-30T19:28:35.236Z,4.50
2017-11-30T19:31:03.488Z,4.40
2017-11-30T19:33:31.086Z,4.40
2017-11-30T19:35:59.332Z,4.50
2017-11-30T19:38:26.796Z,4.40
2017-11-30T19:40:54.321Z,4.50
2017-11-30T19:43:21.836Z,4.50
2017-11-30T19:45:49.429Z,4.60
2017-11-30T19:48:16.943Z,4.60
2017-11-30T19:50:45.181Z,4.60
2017-11-30T19:53:12.600Z,4.60
2017-11-30T19:55:40.167Z,4.60
2017-11-30T19:58:07.661Z,4.60
2017-11-30T20:00:35.196Z,4.60
2017-11-30T20:03:02.713Z,4.70
2017-11-30T20:05:30.193Z,4.70
2017-11-30T20:07:57.651Z,4.70
2017-11-30T20:10:25.154Z,4.70
2017-11-30T20:12:53.393Z,4.70
2017-11-30T20:15:21.157Z,4.70
2017-11-30T20:17:48.627Z,4.60
2017-11-30T20:20:16.095Z,4.60
2017-11-30T20:22:43.715Z,4.60
2017-11-30T20:25:11.198Z,4.60
2017-11-30T20:27:38.707Z,4.70
2017-11-30T20:30:06.215Z,4.70
2017-11-30T20:32:33.721Z,4.70
2017-11-30T20:35:01.237Z,4.70
2017-11-30T20:37:28.696Z,4.70
2017-11-30T20:39:56.229Z,4.70
2017-11-30T20:42:23.683Z,4.70
2017-11-30T20:44:51.170Z,4.70
2017-11-30T20:47:18.669Z,4.70
2017-11-30T20:49:46.898Z,4.70
2017-11-30T20:52:15.165Z,4.60
2017-11-30T20:54:42.641Z,4.60
2017-11-30T20:57:10.936Z,4.50
2017-11-30T20:59:39.172Z,4.50
2017-11-30T21:02:06.654Z,4.50
2017-11-30T21:04:34.166Z,4.60
2017-11-30T21:07:01.644Z,4.50
2017-11-30T21:09:29.136Z,4.50
2017-11-30T21:11:56.639Z,4.60
2017-11-30T21:14:24.092Z,4.60
2017-11-30T21:16:51.552Z,4.60
2017-11-30T21:19:19.098Z,4.70
2017-11-30T21:21:46.568Z,4.70
2017-11-30T21:24:14.827Z,4.60
2017-11-30T21:26:42.319Z,4.60
2017-11-30T21:29:10.570Z,4.60
2017-11-30T21:31:38.135Z,4.60
2017-11-30T21:34:06.465Z,4.60
2017-11-30T21:36:33.966Z,4.60
2017-11-30T21:39:01.455Z,4.60
2017-11-30T21:41:28.937Z,4.50
2017-11-30T21:43:57.206Z,4.50
2017-11-30T21:46:24.664Z,4.50
2017-11-30T21:48:52.182Z,4.50
2017-11-30T21:51:19.726Z,4.50
2017-11-30T21:53:47.132Z,4.60
2017-11-30T21:56:14.608Z,4.60
2017-11-30T21:58:42.143Z,4.60
2017-11-30T22:01:09.608Z,4.70
2017-11-30T22:03:37.107Z,4.70
2017-11-30T22:06:05.340Z,4.70
2017-11-30T22:08:32.874Z,4.70
2017-11-30T22:11:00.356Z,4.70
2017-11-30T22:13:27.846Z,4.60
2017-11-30T22:15:55.329Z,4.50
2017-11-30T22:18:22.809Z,4.50
2017-11-30T22:20:51.111Z,4.50
2017-11-30T22:23:18.528Z,4.50
2017-11-30T22:25:46.004Z,4.50
2017-11-30T22:28:13.487Z,4.50
2017-11-30T22:30:41.782Z,4.40
2017-11-30T22:33:09.272Z,4.30
2017-11-30T22:35:36.726Z,4.10
2017-11-30T22:38:04.228Z,4.00
2017-11-30T22:40:31.684Z,4.00
2017-11-30T22:42:59.172Z,4.10
2017-11-30T22:45:26.645Z,4.30
2017-11-30T22:47:54.917Z,4.40
2017-11-30T22:50:23.173Z,4.40
2017-11-30T22:52:50.636Z,4.40
2017-11-30T22:55:18.129Z,4.50
2017-11-30T22:57:46.353Z,4.50
2017-11-30T23:00:13.837Z,4.50
2017-11-30T23:02:41.310Z,4.50
2017-11-30T23:05:08.827Z,4.40
2017-11-30T23:07:36.350Z,4.50
2017-11-30T23:10:03.799Z,4.50
2017-11-30T23:12:31.302Z,4.50
2017-11-30T23:14:58.764Z,4.60
2017-11-30T23:17:26.260Z,4.50
2017-11-30T23:19:53.786Z,4.50
2017-11-30T23:22:21.266Z,4.60
2017-11-30T23:24:48.745Z,4.60
2017-11-30T23:27:16.248Z,4.60
2017-11-30T23:29:43.754Z,4.60
2017-11-30T23:32:11.216Z,4.60
2017-11-30T23:34:38.786Z,4.60
2017-11-30T23:37:06.257Z,4.60
2017-11-30T23:39:33.787Z,4.60
2017-11-30T23:42:01.298Z,4.60
2017-11-30T23:44:28.757Z,4.60
2017-11-30T23:46:56.255Z,4.60
2017-11-30T23:49:23.743Z,4.60
2017-11-30T23:51:51.236Z,4.60
2017-11-30T23:54:18.724Z,4.60
2017-11-30T23:56:46.204Z,4.60
2017-11-30T23:59:13.801Z,4.60
